Time;durP1;ratioP1;P1;durP2;ratioP2;P2;SDS_P1;SDS_P2;PMS_P1;PMS_P2;Temp;Humidity;BMP_temperature;BMP_pressure;BME280_temperature;BME280_humidity;BME280_pressure;Samples;Min_cycle;Max_cycle;Signal;HPM_P1;HPM_P2
2021/04/29 00:01:28;;;;;;;9.67;3.60;;;14.50;99.90;;;;;;5102015;28;20473;-83
2021/04/29 00:03:54;;;;;;;7.30;2.87;;;14.50;99.90;;;;;;5096845;28;20474;-82
2021/04/29 00:06:21;;;;;;;6.53;3.13;;;14.60;99.90;;;;;;5081934;28;20510;-83
2021/04/29 00:08:48;;;;;;;7.83;3.20;;;14.40;99.90;;;;;;5081376;28;20481;-82
2021/04/29 00:11:15;;;;;;;7.17;3.03;;;14.50;99.90;;;;;;5082251;28;20497;-82
2021/04/29 00:13:41;;;;;;;8.20;3.30;;;14.50;99.90;;;;;;5082218;28;20435;-82
2021/04/29 00:16:08;;;;;;;7.57;3.00;;;14.50;99.90;;;;;;5082389;28;20479;-82
2021/04/29 00:18:34;;;;;;;7.90;2.57;;;14.50;99.90;;;;;;5078025;28;20516;-82
2021/04/29 00:21:01;;;;;;;7.83;3.00;;;14.50;99.90;;;;;;5089023;28;20485;-82
2021/04/29 00:23:29;;;;;;;7.33;3.27;;;14.50;99.90;;;;;;5099103;28;20457;-82
2021/04/29 00:25:56;;;;;;;6.67;2.83;;;14.40;99.90;;;;;;5080277;28;20481;-81
2021/04/29 00:28:23;;;;;;;8.50;2.93;;;14.40;99.90;;;;;;5078161;28;20541;-81
2021/04/29 00:30:50;;;;;;;7.37;3.23;;;14.40;99.90;;;;;;5095792;28;20513;-81
2021/04/29 00:33:17;;;;;;;9.00;3.93;;;14.30;99.90;;;;;;5098736;28;20454;-82
2021/04/29 00:35:43;;;;;;;7.33;3.07;;;14.30;99.90;;;;;;5083531;28;20446;-82
2021/04/29 00:38:10;;;;;;;8.50;3.53;;;14.10;99.90;;;;;;5079278;28;20485;-82
2021/04/29 00:40:36;;;;;;;9.13;3.20;;;14.10;99.90;;;;;;5092680;28;20494;-81
2021/04/29 00:43:04;;;;;;;6.70;3.10;;;14.00;99.90;;;;;;5098924;28;20470;-81
2021/04/29 00:45:30;;;;;;;7.73;3.70;;;13.90;99.90;;;;;;5085861;28;20489;-82
2021/04/29 00:47:57;;;;;;;7.50;3.13;;;13.90;99.90;;;;;;5080885;28;20980;-81
2021/04/29 00:50:25;;;;;;;8.83;2.80;;;13.80;99.90;;;;;;5098179;28;20517;-80
2021/04/29 00:52:52;;;;;;;8.23;3.03;;;13.70;99.90;;;;;;5094660;28;20485;-81
2021/04/29 00:55:18;;;;;;;8.17;3.57;;;13.70;99.90;;;;;;5098313;28;20966;-82
2021/04/29 00:57:45;;;;;;;7.70;3.70;;;13.60;99.90;;;;;;5097564;28;20521;-81
2021/04/29 01:00:14;;;;;;;10.00;2.97;;;13.50;99.90;;;;;;5098437;28;20469;-81
2021/04/29 01:02:45;;;;;;;6.20;2.83;;;13.50;99.90;;;;;;5089998;28;20506;-81
2021/04/29 01:05:14;;;;;;;6.73;2.80;;;13.40;99.90;;;;;;5104473;28;20695;-81
2021/04/29 01:07:43;;;;;;;6.33;2.50;;;13.40;99.90;;;;;;5083541;28;20454;-80
2021/04/29 01:10:14;;;;;;;8.30;3.07;;;13.40;99.90;;;;;;5097232;28;20853;-81
2021/04/29 01:12:48;;;;;;;7.17;2.70;;;13.30;99.90;;;;;;5096577;28;20478;-82
2021/04/29 01:15:16;;;;;;;9.20;3.00;;;13.30;99.90;;;;;;5091331;28;20459;-81
2021/04/29 01:17:46;;;;;;;8.03;3.03;;;13.30;99.90;;;;;;5092557;28;21057;-81
2021/04/29 01:20:18;;;;;;;6.70;2.67;;;13.30;99.90;;;;;;5096472;28;20497;-82
2021/04/29 01:22:53;;;;;;;6.67;2.83;;;13.30;99.90;;;;;;5095088;28;20536;-81
2021/04/29 01:25:22;;;;;;;7.47;4.13;;;13.20;99.90;;;;;;5084564;28;20478;-81
2021/04/29 01:27:50;;;;;;;8.40;2.73;;;13.20;99.90;;;;;;5075994;28;20451;-81
2021/04/29 01:30:17;;;;;;;6.40;2.40;;;13.30;99.90;;;;;;5085079;28;20547;-81
2021/04/29 01:32:44;;;;;;;7.10;3.00;;;13.40;99.90;;;;;;5095957;28;20537;-81
2021/04/29 01:35:12;;;;;;;6.23;2.67;;;13.40;99.90;;;;;;5098582;28;20454;-80
2021/04/29 01:37:39;;;;;;;7.10;2.57;;;13.50;99.90;;;;;;5091553;28;20483;-81
2021/04/29 01:40:08;;;;;;;6.57;2.63;;;13.50;99.90;;;;;;5090836;28;20470;-81
2021/04/29 01:42:36;;;;;;;6.93;2.43;;;13.50;99.90;;;;;;5098097;28;20461;-82
2021/04/29 01:45:06;;;;;;;8.23;3.10;;;13.50;99.90;;;;;;5097066;28;20478;-82
2021/04/29 01:47:34;;;;;;;6.77;2.73;;;13.50;99.90;;;;;;5101464;28;20569;-82
2021/04/29 01:50:02;;;;;;;8.17;2.63;;;13.50;99.90;;;;;;5092111;28;20478;-81
2021/04/29 01:52:28;;;;;;;6.57;2.97;;;13.50;99.90;;;;;;5088358;28;20479;-82
2021/04/29 01:54:55;;;;;;;8.73;2.60;;;13.60;99.90;;;;;;5076571;28;20458;-82
2021/04/29 01:57:22;;;;;;;8.53;3.13;;;13.50;99.90;;;;;;5087290;28;20443;-82
2021/04/29 01:59:48;;;;;;;6.80;2.60;;;13.60;99.90;;;;;;5077530;28;20495;-81
2021/04/29 02:02:16;;;;;;;7.60;2.70;;;13.60;99.90;;;;;;5077287;28;20542;-82
2021/04/29 02:04:42;;;;;;;7.13;3.13;;;13.50;99.90;;;;;;5077609;28;20479;-82
2021/04/29 02:07:09;;;;;;;7.23;2.43;;;13.60;99.90;;;;;;5078692;28;20478;-81
2021/04/29 02:09:35;;;;;;;10.67;3.60;;;13.50;99.90;;;;;;5076654;28;21017;-81
2021/04/29 02:12:03;;;;;;;6.60;2.50;;;13.60;99.90;;;;;;5079309;28;20526;-82
2021/04/29 02:14:33;;;;;;;8.63;3.30;;;13.50;99.90;;;;;;5077446;28;20466;-81
2021/04/29 02:17:05;;;;;;;7.60;2.57;;;13.50;99.90;;;;;;5076002;28;20511;-81
2021/04/29 02:19:33;;;;;;;7.37;2.90;;;13.50;99.90;;;;;;5076902;28;20498;-81
2021/04/29 02:22:00;;;;;;;7.20;2.90;;;13.50;99.90;;;;;;5074928;28;20672;-81
2021/04/29 02:24:30;;;;;;;9.50;3.83;;;13.50;99.90;;;;;;5082425;28;20457;-81
2021/04/29 02:26:59;;;;;;;6.57;2.90;;;13.50;99.90;;;;;;5097163;28;20533;-82
2021/04/29 02:29:26;;;;;;;7.80;3.27;;;13.50;99.90;;;;;;5093029;28;20624;-82
2021/04/29 02:31:53;;;;;;;8.77;3.50;;;13.50;99.90;;;;;;5096391;28;21197;-81
2021/04/29 02:34:20;;;;;;;7.00;3.00;;;13.40;99.90;;;;;;5095448;28;21041;-81
2021/04/29 02:36:48;;;;;;;7.27;2.50;;;13.50;99.90;;;;;;5096154;28;20533;-81
2021/04/29 02:39:14;;;;;;;7.77;3.73;;;13.50;99.90;;;;;;5090695;28;20483;-81
2021/04/29 02:41:41;;;;;;;10.60;3.37;;;13.50;99.90;;;;;;5076512;28;20593;-82
2021/04/29 02:44:10;;;;;;;8.70;3.40;;;13.50;99.90;;;;;;5079292;28;20531;-82
2021/04/29 02:46:40;;;;;;;8.80;3.73;;;13.50;99.90;;;;;;5095351;28;20450;-81
2021/04/29 02:49:07;;;;;;;7.70;3.40;;;13.50;99.90;;;;;;5095959;28;20505;-82
2021/04/29 02:51:36;;;;;;;8.43;4.30;;;13.50;99.90;;;;;;5087342;28;20539;-81
2021/04/29 02:54:06;;;;;;;7.93;3.87;;;13.50;99.90;;;;;;5075600;28;20440;-81
2021/04/29 02:56:32;;;;;;;11.80;4.00;;;13.50;99.90;;;;;;5076864;28;20546;-81
2021/04/29 02:59:00;;;;;;;8.30;3.60;;;13.50;99.90;;;;;;5076319;28;20499;-82
2021/04/29 03:01:27;;;;;;;12.17;4.03;;;13.50;99.90;;;;;;5080987;28;20453;-81
2021/04/29 03:03:53;;;;;;;10.20;4.20;;;13.50;99.90;;;;;;5094297;28;20454;-81
2021/04/29 03:06:21;;;;;;;8.97;4.30;;;13.40;99.90;;;;;;5095105;28;20474;-82
2021/04/29 03:08:51;;;;;;;10.37;5.03;;;13.40;99.90;;;;;;5096172;28;20474;-81
2021/04/29 03:11:19;;;;;;;8.47;4.20;;;13.40;99.90;;;;;;5082164;28;20509;-82
2021/04/29 03:13:45;;;;;;;11.40;5.70;;;13.40;99.90;;;;;;5080325;28;20549;-82
2021/04/29 03:16:11;;;;;;;11.70;6.67;;;13.40;99.90;;;;;;5075534;28;20484;-81
2021/04/29 03:18:38;;;;;;;12.73;6.33;;;13.40;99.90;;;;;;5076746;28;20903;-81
2021/04/29 03:21:05;;;;;;;12.80;7.13;;;13.30;99.90;;;;;;5085257;28;20450;-82
2021/04/29 03:23:32;;;;;;;14.67;7.17;;;13.20;99.90;;;;;;5094671;28;20458;-81
2021/04/29 03:25:58;;;;;;;11.33;6.50;;;13.20;99.90;;;;;;5095658;28;20529;-80
2021/04/29 03:28:26;;;;;;;16.90;7.57;;;13.10;99.90;;;;;;5095023;28;20560;-81
2021/04/29 03:30:52;;;;;;;11.40;7.10;;;13.10;99.90;;;;;;5075107;28;20587;-80
2021/04/29 03:33:19;;;;;;;16.23;8.67;;;13.10;99.90;;;;;;5075797;28;20539;-82
2021/04/29 03:35:45;;;;;;;14.37;8.30;;;13.10;99.90;;;;;;5093981;28;20456;-82
2021/04/29 03:38:11;;;;;;;11.43;7.40;;;13.10;99.90;;;;;;5095971;28;20456;-81
2021/04/29 03:40:38;;;;;;;12.43;7.10;;;13.10;99.90;;;;;;5095768;28;20501;-82
2021/04/29 03:43:05;;;;;;;13.00;8.00;;;13.10;99.90;;;;;;5095538;28;20894;-82
2021/04/29 03:45:33;;;;;;;12.73;8.20;;;13.20;99.90;;;;;;5076898;28;20447;-82
2021/04/29 03:48:00;;;;;;;14.97;7.90;;;13.20;99.90;;;;;;5076833;28;20550;-79
2021/04/29 03:50:26;;;;;;;14.50;7.67;;;13.20;99.90;;;;;;5075839;28;20522;-81
2021/04/29 03:52:53;;;;;;;15.80;9.30;;;13.20;99.90;;;;;;5090166;28;20471;-81
2021/04/29 03:55:19;;;;;;;14.30;8.83;;;13.10;99.90;;;;;;5095354;28;20514;-81
2021/04/29 03:57:46;;;;;;;13.27;8.60;;;13.10;99.90;;;;;;5092587;28;20509;-81
2021/04/29 04:00:14;;;;;;;13.00;7.90;;;13.10;99.90;;;;;;5075789;28;20501;-81
2021/04/29 04:02:42;;;;;;;12.93;7.90;;;13.10;99.90;;;;;;5075213;28;20530;-82
2021/04/29 04:05:09;;;;;;;14.97;8.97;;;13.10;99.90;;;;;;5075937;28;20486;-81
2021/04/29 04:07:35;;;;;;;14.93;8.57;;;13.00;99.90;;;;;;5075711;28;20885;-80
2021/04/29 04:10:03;;;;;;;13.17;8.27;;;13.00;99.90;;;;;;5074846;28;20482;-82
2021/04/29 04:12:32;;;;;;;13.60;8.67;;;13.00;99.90;;;;;;5074171;28;20487;-81
2021/04/29 04:14:58;;;;;;;13.80;9.00;;;12.90;99.90;;;;;;5075054;28;20482;-82
2021/04/29 04:17:25;;;;;;;16.97;8.90;;;12.90;99.90;;;;;;5074920;28;20530;-81
2021/04/29 04:19:52;;;;;;;14.30;8.00;;;12.90;99.90;;;;;;5086381;28;20554;-81
2021/04/29 04:22:18;;;;;;;13.57;8.70;;;12.90;99.90;;;;;;5078782;28;20557;-82
2021/04/29 04:24:45;;;;;;;13.00;7.90;;;12.90;99.90;;;;;;5086269;28;20529;-82
2021/04/29 04:27:11;;;;;;;17.23;8.73;;;12.90;99.90;;;;;;5095332;28;21028;-80
2021/04/29 04:29:38;;;;;;;15.43;8.70;;;12.90;99.90;;;;;;5117938;22;20474;-87
2021/04/29 04:32:05;;;;;;;16.70;8.67;;;13.00;99.90;;;;;;5095087;28;20908;-87
2021/04/29 04:34:31;;;;;;;12.83;9.13;;;12.90;99.90;;;;;;5096246;28;21059;-86
2021/04/29 04:36:59;;;;;;;14.10;8.93;;;12.90;99.90;;;;;;5096066;28;20438;-87
2021/04/29 04:39:26;;;;;;;14.13;9.27;;;12.90;99.90;;;;;;5092842;28;20457;-87
2021/04/29 04:41:52;;;;;;;18.70;9.00;;;12.80;99.90;;;;;;5070283;28;20458;-87
2021/04/29 04:44:23;;;;;;;12.93;8.33;;;12.80;99.90;;;;;;5079018;28;20474;-83
2021/04/29 04:46:51;;;;;;;14.90;8.23;;;12.80;99.90;;;;;;5088133;28;20448;-84
2021/04/29 04:49:17;;;;;;;15.40;8.90;;;12.90;99.90;;;;;;5075003;28;20493;-84
2021/04/29 04:51:44;;;;;;;17.07;9.10;;;12.90;99.90;;;;;;5077622;28;20506;-84
2021/04/29 04:54:11;;;;;;;13.07;8.80;;;12.70;99.90;;;;;;5081398;28;20751;-84
2021/04/29 04:56:37;;;;;;;36.00;18.37;;;12.40;99.90;;;;;;5077114;28;20455;-85
2021/04/29 04:59:04;;;;;;;17.57;10.30;;;12.80;99.90;;;;;;5067462;28;20456;-86
2021/04/29 05:01:31;;;;;;;15.40;9.97;;;12.70;99.90;;;;;;5057398;28;20499;-85
2021/04/29 05:03:57;;;;;;;18.93;12.23;;;12.60;99.90;;;;;;5072860;28;20453;-85
2021/04/29 05:06:24;;;;;;;15.10;9.60;;;12.50;99.90;;;;;;5077529;28;20470;-84
2021/04/29 05:08:50;;;;;;;16.50;11.00;;;12.60;99.90;;;;;;5078341;28;20886;-85
2021/04/29 05:11:17;;;;;;;20.07;11.67;;;12.50;99.90;;;;;;5073787;28;20569;-85
2021/04/29 05:13:44;;;;;;;21.07;12.97;;;12.50;99.90;;;;;;5075935;28;20484;-84
2021/04/29 05:16:10;;;;;;;22.90;11.67;;;12.50;99.90;;;;;;5071812;28;20474;-84
2021/04/29 05:18:37;;;;;;;19.73;11.83;;;12.50;99.90;;;;;;5076558;28;20455;-85
2021/04/29 05:21:03;;;;;;;16.97;10.70;;;12.60;99.90;;;;;;5066732;28;20479;-83
2021/04/29 05:23:30;;;;;;;18.73;11.97;;;12.60;99.90;;;;;;5072103;28;20633;-85
2021/04/29 05:25:56;;;;;;;20.40;13.60;;;12.50;99.90;;;;;;5076974;28;20454;-86
2021/04/29 05:28:24;;;;;;;21.10;14.40;;;12.50;99.90;;;;;;5078306;28;20462;-86
2021/04/29 05:30:50;;;;;;;24.00;13.17;;;12.50;99.90;;;;;;5079395;28;20910;-85
2021/04/29 05:33:17;;;;;;;20.20;13.20;;;12.50;99.90;;;;;;5072941;28;20482;-84
2021/04/29 05:35:43;;;;;;;20.00;13.63;;;12.40;99.90;;;;;;5077832;28;20501;-86
2021/04/29 05:38:09;;;;;;;20.87;13.93;;;12.30;99.90;;;;;;5081835;28;21006;-86
2021/04/29 05:40:36;;;;;;;23.10;15.00;;;12.30;99.90;;;;;;5080295;28;20499;-85
2021/04/29 05:43:02;;;;;;;22.60;14.47;;;12.30;99.90;;;;;;5079568;28;20529;-86
2021/04/29 05:45:29;;;;;;;22.17;14.30;;;12.20;99.90;;;;;;5079737;28;20527;-84
2021/04/29 05:47:56;;;;;;;21.90;15.50;;;12.20;99.90;;;;;;5078789;28;21021;-85
2021/04/29 05:50:22;;;;;;;23.50;15.47;;;12.20;99.90;;;;;;5077134;28;20467;-85
2021/04/29 05:52:49;;;;;;;20.17;15.37;;;12.10;99.90;;;;;;5075810;28;20451;-85
2021/04/29 05:55:15;;;;;;;26.50;15.20;;;12.00;99.90;;;;;;5076460;28;20518;-82
2021/04/29 05:57:41;;;;;;;27.83;14.00;;;12.00;99.90;;;;;;5067951;28;20536;-81
2021/04/29 06:00:09;;;;;;;29.83;16.47;;;12.00;99.90;;;;;;5089067;28;20467;-84
2021/04/29 06:02:36;;;;;;;40.30;18.50;;;12.00;99.90;;;;;;5077089;28;20534;-84
2021/04/29 06:05:03;;;;;;;60.43;49.07;;;12.00;99.90;;;;;;5075607;28;20451;-84
2021/04/29 06:07:30;;;;;;;51.10;43.50;;;12.00;99.90;;;;;;5073420;28;20490;-82
2021/04/29 06:09:56;;;;;;;41.43;16.77;;;12.00;99.90;;;;;;5057124;28;20536;-84
2021/04/29 06:12:23;;;;;;;74.03;62.20;;;12.00;99.90;;;;;;5075305;28;20558;-85
2021/04/29 06:14:49;;;;;;;35.53;16.40;;;12.00;99.90;;;;;;5077941;28;20505;-85
2021/04/29 06:17:16;;;;;;;34.53;19.30;;;12.10;99.90;;;;;;5078825;28;20482;-85
2021/04/29 06:19:43;;;;;;;36.57;29.37;;;12.20;99.90;;;;;;5077524;28;20479;-86
2021/04/29 06:22:09;;;;;;;32.40;23.80;;;12.20;99.90;;;;;;5078521;28;20442;-86
2021/04/29 06:24:36;;;;;;;27.80;16.23;;;12.30;99.90;;;;;;5079483;28;20454;-85
2021/04/29 06:27:03;;;;;;;33.23;17.57;;;12.30;99.90;;;;;;5079575;28;20534;-85
2021/04/29 06:29:29;;;;;;;26.33;16.07;;;12.40;99.90;;;;;;5078790;28;20535;-86
2021/04/29 06:31:56;;;;;;;26.60;16.10;;;12.60;99.90;;;;;;5077341;28;20534;-86
2021/04/29 06:34:23;;;;;;;29.63;17.73;;;12.60;99.90;;;;;;5076183;28;20508;-85
2021/04/29 06:36:50;;;;;;;26.23;18.23;;;12.60;99.90;;;;;;5077885;28;20478;-87
2021/04/29 06:39:19;;;;;;;25.03;17.00;;;12.80;99.90;;;;;;5069382;28;20895;-86
2021/04/29 06:41:45;;;;;;;26.67;17.27;;;12.80;99.90;;;;;;5075231;28;20508;-86
2021/04/29 06:44:12;;;;;;;39.33;19.07;;;12.90;99.90;;;;;;5079135;28;20451;-86
2021/04/29 06:46:38;;;;;;;28.00;18.17;;;12.90;99.90;;;;;;5109898;28;20418;-84
2021/04/29 06:49:06;;;;;;;27.77;17.40;;;12.80;99.90;;;;;;5098667;28;20431;-83
2021/04/29 06:51:32;;;;;;;24.90;18.40;;;12.90;99.90;;;;;;5091641;28;20490;-85
2021/04/29 06:54:00;;;;;;;31.97;20.93;;;12.90;99.90;;;;;;5075338;28;20593;-85
2021/04/29 06:56:26;;;;;;;33.10;18.90;;;12.80;99.90;;;;;;5074353;28;20447;-81
2021/04/29 06:58:53;;;;;;;25.30;18.47;;;12.80;99.90;;;;;;5074659;28;20475;-81
2021/04/29 07:01:19;;;;;;;28.73;17.73;;;12.80;99.90;;;;;;5069757;28;21040;-81
2021/04/29 07:03:45;;;;;;;29.20;17.97;;;12.90;99.90;;;;;;5075572;28;20512;-81
2021/04/29 07:06:12;;;;;;;31.63;18.53;;;13.50;99.90;;;;;;5067235;28;20464;-81
2021/04/29 07:08:38;;;;;;;26.80;18.30;;;15.80;99.90;;;;;;5067103;28;20483;-81
2021/04/29 07:11:05;;;;;;;26.63;18.87;;;13.50;99.90;;;;;;5073232;28;20511;-83
2021/04/29 07:13:32;;;;;;;24.93;17.33;;;13.80;99.90;;;;;;5076794;28;20451;-85
2021/04/29 07:15:58;;;;;;;24.47;18.87;;;14.00;99.90;;;;;;5078771;28;20890;-84
2021/04/29 07:18:25;;;;;;;29.30;19.77;;;14.20;99.90;;;;;;5073866;28;20475;-86
2021/04/29 07:20:54;;;;;;;28.73;17.93;;;14.50;99.90;;;;;;5078885;28;20518;-84
2021/04/29 07:23:21;;;;;;;26.07;19.03;;;14.60;99.90;;;;;;5077821;28;20449;-85
2021/04/29 07:25:47;;;;;;;25.57;17.10;;;14.70;99.90;;;;;;5080213;28;20455;-86
2021/04/29 07:28:15;;;;;;;27.13;17.93;;;15.10;99.90;;;;;;5078912;28;20475;-83
2021/04/29 07:30:41;;;;;;;23.80;16.73;;;15.60;99.90;;;;;;5079592;28;20514;-83
2021/04/29 07:33:08;;;;;;;26.60;16.03;;;15.50;99.90;;;;;;5078073;28;20534;-83
2021/04/29 07:35:34;;;;;;;24.10;16.37;;;15.70;99.90;;;;;;5077784;28;20467;-84
2021/04/29 07:38:02;;;;;;;23.57;17.10;;;16.00;99.90;;;;;;5078251;28;20513;-84
2021/04/29 07:40:29;;;;;;;27.83;17.27;;;16.00;99.90;;;;;;5078171;28;20503;-83
2021/04/29 07:42:56;;;;;;;24.70;18.27;;;16.50;99.90;;;;;;5075943;28;20486;-83
2021/04/29 07:45:25;;;;;;;24.57;18.73;;;17.10;99.90;;;;;;5074338;28;20841;-84
2021/04/29 07:47:52;;;;;;;22.93;16.60;;;18.00;99.90;;;;;;5079165;28;20458;-85
2021/04/29 07:50:19;;;;;;;29.73;16.90;;;18.90;99.90;;;;;;5075211;28;20854;-83
2021/04/29 07:52:46;;;;;;;24.90;18.37;;;19.00;99.90;;;;;;5075670;28;20489;-82
2021/04/29 07:55:13;;;;;;;25.50;18.73;;;19.40;99.90;;;;;;5075422;28;20451;-83
2021/04/29 07:57:40;;;;;;;27.67;17.73;;;19.10;99.90;;;;;;5074843;28;20554;-82
2021/04/29 08:00:08;;;;;;;22.67;17.27;;;19.30;99.90;;;;;;5074811;28;20846;-80
2021/04/29 08:02:36;;;;;;;23.57;17.57;;;19.40;99.90;;;;;;5077634;28;20530;-82
2021/04/29 08:05:03;;;;;;;21.60;16.87;;;19.60;99.90;;;;;;5077578;28;20541;-83
2021/04/29 08:07:29;;;;;;;25.83;17.50;;;19.70;99.90;;;;;;5077194;28;20451;-84
2021/04/29 08:09:56;;;;;;;22.53;17.43;;;20.10;99.90;;;;;;5077844;28;20502;-82
2021/04/29 08:12:22;;;;;;;23.53;16.33;;;20.20;99.90;;;;;;5075678;28;20490;-85
2021/04/29 08:14:49;;;;;;;23.50;17.60;;;20.50;99.90;;;;;;5076072;28;20533;-82
2021/04/29 08:17:15;;;;;;;24.23;18.00;;;20.80;98.60;;;;;;5066153;28;20509;-83
2021/04/29 08:19:42;;;;;;;23.30;19.03;;;21.30;98.30;;;;;;5078893;28;20805;-84
2021/04/29 08:22:09;;;;;;;23.37;18.60;;;20.30;97.90;;;;;;5060809;28;20533;-85
2021/04/29 08:24:35;;;;;;;25.90;20.17;;;20.20;98.70;;;;;;5071538;28;20597;-85
2021/04/29 08:27:01;;;;;;;27.27;20.77;;;20.60;98.10;;;;;;5070876;28;20545;-86
2021/04/29 08:29:28;;;;;;;27.60;21.83;;;20.60;97.40;;;;;;5079915;28;20861;-87
2021/04/29 08:31:55;;;;;;;30.27;23.07;;;20.10;98.10;;;;;;5079469;28;20926;-86
2021/04/29 08:34:21;;;;;;;29.57;25.77;;;20.20;98.40;;;;;;5081028;28;20455;-85
2021/04/29 08:36:48;;;;;;;34.33;28.23;;;19.50;98.10;;;;;;5079755;28;20489;-84
2021/04/29 08:39:15;;;;;;;41.23;29.43;;;18.50;98.70;;;;;;5078836;28;20522;-87
2021/04/29 08:41:43;;;;;;;39.30;30.33;;;17.80;99.80;;;;;;5080370;28;20628;-86
2021/04/29 08:44:10;;;;;;;36.93;32.93;;;17.40;99.90;;;;;;5080271;28;21045;-86
2021/04/29 08:46:36;;;;;;;36.63;31.70;;;17.30;99.90;;;;;;5079651;28;20477;-87
2021/04/29 08:49:03;;;;;;;42.20;33.20;;;17.30;99.90;;;;;;5081828;28;20490;-85
2021/04/29 08:51:30;;;;;;;36.40;30.90;;;17.50;99.90;;;;;;5082150;28;20513;-85
2021/04/29 08:53:57;;;;;;;35.23;30.47;;;18.80;99.90;;;;;;5074770;28;20470;-85
2021/04/29 08:56:26;;;;;;;38.40;31.27;;;19.70;99.90;;;;;;5079544;28;20508;-84
2021/04/29 08:58:53;;;;;;;41.93;31.83;;;19.10;99.90;;;;;;5082720;28;20999;-86
2021/04/29 09:01:21;;;;;;;36.90;32.40;;;18.60;99.90;;;;;;5088276;28;20466;-86
2021/04/29 09:03:48;;;;;;;47.30;32.50;;;18.70;99.90;;;;;;5079800;28;20485;-85
2021/04/29 09:06:15;;;;;;;37.13;30.30;;;18.40;99.90;;;;;;5071213;28;20447;-88
2021/04/29 09:08:43;;;;;;;39.13;31.83;;;18.10;99.90;;;;;;5078528;28;20454;-86
2021/04/29 09:11:12;;;;;;;36.57;30.73;;;18.00;99.90;;;;;;5077863;28;20501;-86
2021/04/29 09:13:40;;;;;;;40.47;31.27;;;17.80;99.90;;;;;;5080851;28;20547;-86
2021/04/29 09:16:09;;;;;;;40.93;32.53;;;17.00;99.90;;;;;;5077972;28;20546;-85
2021/04/29 09:18:36;;;;;;;42.67;31.63;;;16.20;99.90;;;;;;5059264;28;20444;-86
2021/04/29 09:21:07;;;;;;;41.20;30.43;;;15.80;99.90;;;;;;5067540;28;20506;-85
2021/04/29 09:23:35;;;;;;;38.07;28.70;;;15.50;99.90;;;;;;5078123;28;20446;-86
2021/04/29 09:26:03;;;;;;;36.70;29.00;;;16.80;99.90;;;;;;5077388;28;21160;-86
2021/04/29 09:28:39;;;;;;;38.73;30.10;;;18.80;99.90;;;;;;5062600;28;20472;-87
2021/04/29 09:31:06;;;;;;;32.27;27.63;;;18.90;99.90;;;;;;5078136;28;20547;-85
2021/04/29 09:33:34;;;;;;;34.40;27.97;;;18.10;99.90;;;;;;5083618;28;20474;-85
2021/04/29 09:36:01;;;;;;;38.50;29.40;;;17.40;99.90;;;;;;5078967;28;20527;-87
2021/04/29 09:38:32;;;;;;;39.23;29.90;;;16.60;99.90;;;;;;5078195;28;20502;-85
2021/04/29 09:40:59;;;;;;;39.60;29.07;;;15.90;99.90;;;;;;5079073;28;21161;-85
2021/04/29 09:43:26;;;;;;;39.83;28.93;;;15.60;99.90;;;;;;5087087;28;20485;-86
2021/04/29 09:45:58;;;;;;;36.80;29.40;;;15.50;99.90;;;;;;5080706;28;20977;-85
2021/04/29 09:48:34;;;;;;;34.80;27.33;;;16.00;99.90;;;;;;5068870;28;20478;-85
2021/04/29 09:51:02;;;;;;;33.67;26.33;;;17.20;99.90;;;;;;5081590;28;20474;-85
2021/04/29 09:53:39;;;;;;;31.77;24.30;;;19.00;99.90;;;;;;5079754;28;20447;-85
2021/04/29 09:56:11;;;;;;;29.87;24.80;;;19.70;99.90;;;;;;5082893;28;20454;-83
2021/04/29 09:58:41;;;;;;;29.93;22.53;;;20.80;99.90;;;;;;5081783;28;20459;-84
2021/04/29 10:01:14;;;;;;;29.10;22.20;;;23.70;98.00;;;;;;5081545;28;20459;-83
2021/04/29 10:03:41;;;;;;;26.57;23.70;;;23.60;93.30;;;;;;5093081;28;20557;-85
2021/04/29 10:06:11;;;;;;;27.60;23.50;;;23.00;90.70;;;;;;5082755;28;20455;-85
2021/04/29 10:08:38;;;;;;;24.20;21.00;;;21.20;90.90;;;;;;5081462;28;20795;-84
2021/04/29 10:11:06;;;;;;;24.73;20.70;;;20.40;91.30;;;;;;5081277;28;20513;-85
2021/04/29 10:13:36;;;;;;;24.10;20.37;;;19.70;91.20;;;;;;5082093;28;20529;-83
2021/04/29 10:16:03;;;;;;;23.50;19.23;;;20.30;91.50;;;;;;5082337;28;20455;-84
2021/04/29 10:18:31;;;;;;;21.33;17.73;;;20.80;91.30;;;;;;5084442;28;20504;-84
2021/04/29 10:20:59;;;;;;;25.80;19.10;;;21.40;90.30;;;;;;5094478;28;20452;-80
2021/04/29 10:23:26;;;;;;;22.70;19.13;;;21.70;90.60;;;;;;5096688;28;20459;-83
2021/04/29 10:25:54;;;;;;;27.43;20.20;;;22.80;89.60;;;;;;5093912;28;20447;-85
2021/04/29 10:28:34;;;;;;;24.97;18.80;;;23.60;85.90;;;;;;5082381;28;20546;-86
2021/04/29 10:31:13;;;;;;;19.93;16.87;;;24.20;86.60;;;;;;5124119;22;20503;-82
2021/04/29 10:33:51;;;;;;;28.67;18.80;;;26.30;81.30;;;;;;5104072;28;20473;-80
2021/04/29 10:36:18;;;;;;;22.83;19.17;;;28.10;73.40;;;;;;5122422;28;20441;-83
2021/04/29 10:38:45;;;;;;;21.67;18.93;;;28.00;70.40;;;;;;5134599;28;20426;-83
2021/04/29 10:41:20;;;;;;;18.73;16.73;;;29.20;65.00;;;;;;5132551;28;20473;-78
2021/04/29 10:43:47;;;;;;;25.30;17.13;;;28.20;62.20;;;;;;5127886;28;20434;-83
2021/04/29 10:46:27;;;;;;;18.80;16.80;;;26.50;59.50;;;;;;5116869;28;20437;-83
2021/04/29 10:48:55;;;;;;;18.53;16.37;;;24.30;60.10;;;;;;5116544;28;20449;-84
2021/04/29 10:51:28;;;;;;;20.47;16.67;;;25.10;62.10;;;;;;5115675;28;20516;-84
2021/04/29 10:53:55;;;;;;;22.50;17.80;;;24.80;61.20;;;;;;5116792;28;20442;-84
2021/04/29 10:56:21;;;;;;;27.43;18.97;;;23.40;66.10;;;;;;5119280;28;20470;-85
2021/04/29 10:58:48;;;;;;;21.63;19.27;;;25.00;63.00;;;;;;5137693;28;20464;-80
2021/04/29 11:01:17;;;;;;;17.63;15.13;;;25.60;61.80;;;;;;5135825;28;20446;-82
2021/04/29 11:03:46;;;;;;;20.27;16.77;;;26.70;65.80;;;;;;5118063;28;20498;-84
2021/04/29 11:06:16;;;;;;;22.57;18.33;;;27.00;59.70;;;;;;5116860;28;20438;-81
2021/04/29 11:08:45;;;;;;;22.10;19.57;;;27.00;58.70;;;;;;5132274;28;20774;-82
2021/04/29 11:11:27;;;;;;;26.23;20.80;;;25.50;63.60;;;;;;5115649;28;20492;-82
2021/04/29 11:14:01;;;;;;;26.67;20.50;;;23.30;61.90;;;;;;5117052;28;20454;-82
2021/04/29 11:16:28;;;;;;;25.60;20.67;;;21.70;65.70;;;;;;5115976;28;20457;-82
2021/04/29 11:18:55;;;;;;;26.90;20.10;;;20.10;66.30;;;;;;5115629;28;20434;-82
2021/04/29 11:21:27;;;;;;;20.67;17.27;;;21.00;71.60;;;;;;5135855;28;20462;-81
2021/04/29 11:23:54;;;;;;;23.97;18.97;;;23.10;67.80;;;;;;5134293;27;20454;-83
2021/04/29 11:26:21;;;;;;;26.70;19.77;;;21.50;64.90;;;;;;5136293;28;20442;-83
2021/04/29 11:28:51;;;;;;;23.30;17.27;;;20.00;68.80;;;;;;5136973;28;20429;-82
2021/04/29 11:31:18;;;;;;;23.20;17.13;;;18.90;68.70;;;;;;5136562;28;20489;-83
2021/04/29 11:33:48;;;;;;;23.20;15.43;;;18.30;72.60;;;;;;5119654;28;20479;-82
2021/04/29 11:36:16;;;;;;;21.47;16.80;;;20.20;77.60;;;;;;5129329;28;20457;-82
2021/04/29 11:38:51;;;;;;;19.57;15.30;;;21.70;73.60;;;;;;5134755;28;20445;-82
2021/04/29 11:41:17;;;;;;;22.27;14.80;;;20.80;69.00;;;;;;5133114;28;20474;-83
2021/04/29 11:43:44;;;;;;;18.03;14.97;;;19.40;69.60;;;;;;5132990;28;20494;-83
2021/04/29 11:46:20;;;;;;;18.30;14.00;;;18.00;71.90;;;;;;5133018;28;20453;-83
2021/04/29 11:48:55;;;;;;;18.90;13.83;;;17.40;74.70;;;;;;5131359;28;20451;-81
2021/04/29 11:51:22;;;;;;;20.23;14.83;;;17.10;77.60;;;;;;5114427;28;20520;-82
2021/04/29 11:53:53;;;;;;;18.13;12.73;;;16.90;78.10;;;;;;5108535;28;20556;-81
2021/04/29 11:56:19;;;;;;;15.20;10.87;;;16.60;76.10;;;;;;5120211;28;20473;-80
2021/04/29 11:59:02;;;;;;;16.70;10.73;;;16.40;77.40;;;;;;5127578;28;20449;-81
2021/04/29 12:01:28;;;;;;;24.57;13.80;;;16.50;77.50;;;;;;5124969;28;20469;-80
2021/04/29 12:03:54;;;;;;;23.63;13.33;;;16.10;84.00;;;;;;5119376;28;20478;-81
2021/04/29 12:06:22;;;;;;;19.00;14.27;;;15.40;90.30;;;;;;5112897;28;20438;-80
2021/04/29 12:08:52;;;;;;;21.33;14.27;;;14.80;98.10;;;;;;5121467;28;20973;-81
2021/04/29 12:11:19;;;;;;;21.93;14.97;;;14.20;99.90;;;;;;5114466;28;20484;-81
2021/04/29 12:13:52;;;;;;;32.37;19.07;;;13.20;99.90;;;;;;5115176;28;20532;-82
2021/04/29 12:16:25;;;;;;;48.63;30.70;;;13.00;99.90;;;;;;5113659;28;21234;-82
2021/04/29 12:18:53;;;;;;;20.20;14.67;;;13.40;99.90;;;;;;5099627;28;20831;-81
2021/04/29 12:21:22;;;;;;;18.73;13.80;;;16.10;99.90;;;;;;5115119;28;20465;-81
2021/04/29 12:23:56;;;;;;;17.00;12.20;;;18.60;99.90;;;;;;5116907;28;20531;-81
2021/04/29 12:26:32;;;;;;;21.30;12.00;;;20.80;99.90;;;;;;5110567;28;20925;-82
2021/04/29 12:29:01;;;;;;;18.73;12.67;;;21.60;99.90;;;;;;5106510;28;20441;-82
2021/04/29 12:31:28;;;;;;;20.70;13.60;;;21.00;99.90;;;;;;5118598;28;20553;-83
2021/04/29 12:34:00;;;;;;;13.90;9.97;;;21.10;99.90;;;;;;5121631;28;20448;-83
2021/04/29 12:36:27;;;;;;;16.00;9.90;;;20.40;99.90;;;;;;5099613;28;20481;-82